createdAt,value
2022-11-24T00:00:34.047Z,90.67
2022-11-24T00:15:36.006Z,90.42
2022-11-24T00:30:38.069Z,90.35
2022-11-24T00:45:40.308Z,90.41
2022-11-24T01:00:42.370Z,90.22
2022-11-24T01:15:44.358Z,90.52
2022-11-24T01:30:47.723Z,90.52
2022-11-24T01:45:51.234Z,90.41
2022-11-24T02:00:54.207Z,90.60
2022-11-24T02:15:56.396Z,90.80
2022-11-24T02:31:01.296Z,90.79
2022-11-24T02:46:03.388Z,90.67
2022-11-24T03:01:05.539Z,90.59
2022-11-24T03:16:10.858Z,90.61
2022-11-24T03:31:13.531Z,90.47
2022-11-24T03:46:15.548Z,90.58
2022-11-24T04:01:17.546Z,90.44
2022-11-24T04:16:19.562Z,90.70
2022-11-24T04:31:21.530Z,90.64
2022-11-24T04:46:23.505Z,90.75
2022-11-24T05:01:25.536Z,90.84
2022-11-24T05:16:27.598Z,90.71
2022-11-24T05:31:29.578Z,90.33
2022-11-24T05:46:31.546Z,90.35
2022-11-24T06:01:33.490Z,90.41
2022-11-24T06:16:35.479Z,90.11
2022-11-24T06:31:37.665Z,90.06
2022-11-24T06:46:39.635Z,89.71
2022-11-24T07:01:41.579Z,89.68
2022-11-24T07:16:43.531Z,89.73
2022-11-24T07:31:46.267Z,89.95
2022-11-24T07:46:50.339Z,89.36
2022-11-24T08:01:52.368Z,89.43
2022-11-24T08:16:54.365Z,89.04
2022-11-24T08:31:59.342Z,88.84
2022-11-24T08:47:01.272Z,88.88
2022-11-24T09:02:03.258Z,88.71
2022-11-24T09:17:05.371Z,88.30
2022-11-24T09:32:07.338Z,88.17
2022-11-24T09:47:42.849Z,87.90
2022-11-24T10:02:48.626Z,87.51
2022-11-24T10:18:16.814Z,87.22
2022-11-24T10:33:27.097Z,87.09
2022-11-24T10:48:39.959Z,87.08
2022-11-24T11:03:50.754Z,86.60
2022-11-24T11:18:53.491Z,86.66
2022-11-24T11:34:21.899Z,86.51
2022-11-24T11:49:27.220Z,86.55
2022-11-24T12:04:47.689Z,86.45
2022-11-24T12:19:49.441Z,86.48
2022-11-24T12:34:57.256Z,86.26
2022-11-24T12:50:18.962Z,86.41
2022-11-24T13:05:24.041Z,86.69
2022-11-24T13:20:32.503Z,87.26
2022-11-24T13:35:34.361Z,87.35
2022-11-24T13:50:52.324Z,87.63
2022-11-24T14:05:57.141Z,87.90
2022-11-24T14:21:01.790Z,88.76
2022-11-24T14:36:04.004Z,88.34
2022-11-24T14:51:15.246Z,88.49
2022-11-24T15:06:20.100Z,89.06
2022-11-24T15:21:36.261Z,89.20
2022-11-24T15:36:38.292Z,89.67
2022-11-24T15:51:44.132Z,90.02
2022-11-24T16:06:46.088Z,90.50
2022-11-24T16:21:48.959Z,90.28
2022-11-24T16:36:50.848Z,90.07
2022-11-24T16:51:54.054Z,89.98
2022-11-24T17:06:58.881Z,90.28
2022-11-24T17:22:00.930Z,89.80
2022-11-24T17:37:02.906Z,89.82
2022-11-24T17:52:04.988Z,89.56
2022-11-24T18:07:06.847Z,89.47
2022-11-24T18:22:08.719Z,89.48
2022-11-24T18:37:13.706Z,89.50
2022-11-24T18:52:15.704Z,89.07
2022-11-24T19:07:17.651Z,89.58
2022-11-24T19:22:19.741Z,89.60
2022-11-24T19:37:23.697Z,89.92
2022-11-24T19:52:27.491Z,89.90
2022-11-24T20:07:29.553Z,89.77
2022-11-24T20:22:31.999Z,89.71
2022-11-24T20:37:49.349Z,89.63
2022-11-24T20:52:51.502Z,89.67
2022-11-24T21:07:54.216Z,89.68
2022-11-24T21:22:56.160Z,90.59
2022-11-24T21:37:58.722Z,90.44
2022-11-24T21:53:03.461Z,90.18
2022-11-24T22:08:05.780Z,91.20
2022-11-24T22:23:07.719Z,91.48
2022-11-24T22:38:09.700Z,91.95
2022-11-24T22:53:11.640Z,92.17
2022-11-24T23:08:13.599Z,91.78
2022-11-24T23:23:15.467Z,91.90
2022-11-24T23:38:17.358Z,92.20
2022-11-24T23:53:19.608Z,92.00
